Time,TemperatureF,DewpointF,PressureIn,WindDirection,WindDirectionDegrees,WindSpeedMPH,WindSpeedGustMPH,Humidity,HourlyPrecipIn,Conditions,Clouds,dailyrainin,SoftwareType,DateUTC
2013-04-16 00:00:00,67.3,38.1,29.80,SE,135,1.8,3.9,33,0.00,,,0.00,tws,2013-04-16 07:00:00,
2013-04-16 00:10:00,66.7,38.4,29.80,East,90,3.8,5.8,35,0.00,,,0.00,tws,2013-04-16 07:10:00,
2013-04-16 00:20:00,66.8,38.9,29.80,East,90,6.0,8.6,35,0.00,,,0.00,tws,2013-04-16 07:20:00,
2013-04-16 00:30:00,67.2,39.5,29.80,ENE,67,6.4,9.2,35,0.00,,,0.00,tws,2013-04-16 07:30:00,
2013-04-16 00:40:00,67.3,39.7,29.80,ESE,112,7.9,11.5,35,0.00,,,0.00,tws,2013-04-16 07:40:00,
2013-04-16 00:50:00,67.4,39.7,29.80,East,90,8.5,9.9,35,0.00,,,0.00,tws,2013-04-16 07:50:00,
2013-04-16 01:00:00,67.3,39.7,29.80,East,90,7.6,11.5,36,0.00,,,0.00,tws,2013-04-16 08:00:00,
2013-04-16 01:10:00,67.1,39.7,29.80,ESE,112,7.0,8.8,36,0.00,,,0.00,tws,2013-04-16 08:10:00,
2013-04-16 01:20:00,66.9,39.7,29.81,East,90,6.5,7.7,36,0.00,,,0.00,tws,2013-04-16 08:20:00,
2013-04-16 01:30:00,66.6,39.5,29.80,SE,135,5.7,7.6,36,0.00,,,0.00,tws,2013-04-16 08:30:00,
2013-04-16 01:40:00,66.3,39.8,29.80,SE,135,4.5,5.5,37,0.00,,,0.00,tws,2013-04-16 08:40:00,
2013-04-16 01:50:00,66.0,39.5,29.81,SE,135,5.4,7.2,37,0.00,,,0.00,tws,2013-04-16 08:50:00,
2013-04-16 02:00:00,65.9,39.6,29.80,SE,135,4.9,7.8,37,0.00,,,0.00,tws,2013-04-16 09:00:00,
2013-04-16 02:10:00,65.8,39.7,29.80,ESE,112,5.5,8.1,37,0.00,,,0.00,tws,2013-04-16 09:10:00,
2013-04-16 02:20:00,65.8,39.9,29.80,East,90,5.2,7.3,38,0.00,,,0.00,tws,2013-04-16 09:20:00,
2013-04-16 02:30:00,65.6,40.0,29.80,ESE,112,4.5,6.2,38,0.00,,,0.00,tws,2013-04-16 09:30:00,
2013-04-16 02:40:00,65.4,40.1,29.80,SSE,157,5.6,7.8,39,0.00,,,0.00,tws,2013-04-16 09:40:00,
2013-04-16 02:50:00,65.3,40.1,29.80,ENE,67,5.7,6.4,39,0.00,,,0.00,tws,2013-04-16 09:50:00,
2013-04-16 03:00:00,65.2,40.1,29.79,East,90,5.0,8.0,39,0.00,,,0.00,tws,2013-04-16 10:00:00,
2013-04-16 03:10:00,65.0,40.3,29.80,NE,45,5.3,9.6,39,0.00,,,0.00,tws,2013-04-16 10:10:00,
2013-04-16 03:20:00,64.9,40.3,29.80,ESE,112,6.8,8.9,40,0.00,,,0.00,tws,2013-04-16 10:20:00,
2013-04-16 03:30:00,64.8,40.4,29.80,East,90,6.8,8.2,40,0.00,,,0.00,tws,2013-04-16 10:30:00,
2013-04-16 03:40:00,64.8,40.0,29.80,NE,45,7.2,8.6,39,0.00,,,0.00,tws,2013-04-16 10:40:00,
2013-04-16 03:50:00,64.8,39.5,29.79,North,360,6.9,8.4,38,0.00,,,0.00,tws,2013-04-16 10:50:00,
2013-04-16 04:00:00,64.7,38.7,29.79,ENE,67,8.1,11.1,37,0.00,,,0.00,tws,2013-04-16 11:00:00,
2013-04-16 04:10:00,64.7,37.7,29.79,NNE,22,9.2,11.5,36,0.00,,,0.00,tws,2013-04-16 11:10:00,
2013-04-16 04:20:00,64.6,36.6,29.80,NE,45,7.5,8.6,35,0.00,,,0.00,tws,2013-04-16 11:20:00,
2013-04-16 04:30:00,64.6,35.9,29.80,East,90,7.5,11.7,34,0.00,,,0.00,tws,2013-04-16 11:30:00,
2013-04-16 04:40:00,64.5,34.9,29.80,East,90,8.6,11.6,32,0.00,,,0.00,tws,2013-04-16 11:40:00,
2013-04-16 04:50:00,64.5,34.2,29.79,East,90,9.1,11.6,32,0.00,,,0.00,tws,2013-04-16 11:50:00,
2013-04-16 05:00:00,64.2,33.4,29.80,East,90,9.1,10.6,31,0.00,,,0.00,tws,2013-04-16 12:00:00,
2013-04-16 05:10:00,64.1,32.4,29.79,ESE,112,8.8,10.5,30,0.00,,,0.00,tws,2013-04-16 12:10:00,
2013-04-16 05:20:00,64.0,31.6,29.80,East,90,9.4,10.9,29,0.00,,,0.00,tws,2013-04-16 12:20:00,
2013-04-16 05:30:00,63.9,31.4,29.79,East,90,8.5,10.6,29,0.00,,,0.00,tws,2013-04-16 12:30:00,
2013-04-16 05:40:00,63.6,31.1,29.79,East,90,9.2,10.6,29,0.00,,,0.00,tws,2013-04-16 12:40:00,
2013-04-16 05:50:00,63.4,30.7,29.79,East,90,7.4,10.7,28,0.00,,,0.00,tws,2013-04-16 12:50:00,
2013-04-16 06:00:00,63.1,30.4,29.79,East,90,7.8,9.9,28,0.00,,,0.00,tws,2013-04-16 13:00:00,
2013-04-16 06:10:00,63.0,29.9,29.79,East,90,10.2,14.1,28,0.00,,,0.00,tws,2013-04-16 13:10:00,
2013-04-16 06:20:00,63.1,29.7,29.79,East,90,10.0,12.7,28,0.00,,,0.00,tws,2013-04-16 13:20:00,
2013-04-16 06:30:00,63.3,29.7,29.80,ESE,112,9.6,11.4,27,0.00,,,0.00,tws,2013-04-16 13:30:00,
2013-04-16 06:40:00,63.5,29.7,29.80,ESE,112,8.7,13.3,27,0.00,,,0.00,tws,2013-04-16 13:40:00,
2013-04-16 06:50:00,63.8,30.4,29.81,East,90,10.6,13.0,28,0.00,,,0.00,tws,2013-04-16 13:50:00,
2013-04-16 07:00:00,64.1,31.4,29.82,ESE,112,9.9,12.4,28,0.00,,,0.00,tws,2013-04-16 14:00:00,
2013-04-16 07:10:00,64.4,31.8,29.82,ENE,67,8.7,10.3,29,0.00,,,0.00,tws,2013-04-16 14:10:00,
2013-04-16 07:20:00,64.7,32.1,29.83,East,90,8.1,9.8,29,0.00,,,0.00,tws,2013-04-16 14:20:00,
2013-04-16 07:30:00,64.9,32.6,29.83,East,90,8.8,10.3,29,0.00,,,0.00,tws,2013-04-16 14:30:00,
2013-04-16 07:40:00,65.2,32.9,29.83,SE,135,9.8,11.8,29,0.00,,,0.00,tws,2013-04-16 14:40:00,
2013-04-16 07:50:00,65.6,33.4,29.83,East,90,10.5,12.7,29,0.00,,,0.00,tws,2013-04-16 14:50:00,
2013-04-16 08:00:00,66.0,33.4,29.84,North,360,10.1,11.1,29,0.00,,,0.00,tws,2013-04-16 15:00:00,
2013-04-16 08:10:00,66.4,34.0,29.85,ESE,112,9.9,10.7,29,0.00,,,0.00,tws,2013-04-16 15:10:00,
2013-04-16 08:20:00,67.0,34.4,29.85,East,90,9.3,13.5,29,0.00,,,0.00,tws,2013-04-16 15:20:00,
2013-04-16 08:30:00,67.6,34.7,29.84,ESE,112,10.5,13.2,29,0.00,,,0.00,tws,2013-04-16 15:30:00,
2013-04-16 08:40:00,68.1,34.9,29.84,East,90,9.8,12.6,28,0.00,,,0.00,tws,2013-04-16 15:40:00,
2013-04-16 08:50:00,68.9,35.4,29.84,SE,135,10.2,13.3,28,0.00,,,0.00,tws,2013-04-16 15:50:00,
2013-04-16 09:00:00,69.7,36.0,29.85,East,90,12.3,16.1,28,0.00,,,0.00,tws,2013-04-16 16:00:00,
2013-04-16 09:10:00,70.4,36.5,29.84,ESE,112,10.9,14.1,28,0.00,,,0.00,tws,2013-04-16 16:10:00,
2013-04-16 09:20:00,71.4,37.3,29.84,East,90,9.9,12.3,28,0.00,,,0.00,tws,2013-04-16 16:20:00,
2013-04-16 09:30:00,72.8,37.2,29.84,East,90,10.0,12.4,27,0.00,,,0.00,tws,2013-04-16 16:30:00,
2013-04-16 09:40:00,73.9,37.5,29.84,ESE,112,9.4,12.7,26,0.00,,,0.00,tws,2013-04-16 16:40:00,
2013-04-16 09:50:00,74.7,37.7,29.84,SE,135,10.2,11.1,25,0.00,,,0.00,tws,2013-04-16 16:50:00,
2013-04-16 10:00:00,75.4,37.8,29.84,NE,45,9.7,11.6,25,0.00,,,0.00,tws,2013-04-16 17:00:00,
2013-04-16 10:10:00,76.1,38.1,29.84,North,360,8.0,11.8,24,0.00,,,0.00,tws,2013-04-16 17:10:00,
2013-04-16 10:20:00,77.4,38.3,29.83,East,90,8.1,11.1,24,0.00,,,0.00,tws,2013-04-16 17:20:00,
2013-04-16 10:30:00,78.0,37.7,29.83,SE,135,9.3,13.5,23,0.00,,,0.00,tws,2013-04-16 17:30:00,
2013-04-16 10:40:00,77.9,37.0,29.83,ENE,67,9.3,10.2,22,0.00,,,0.00,tws,2013-04-16 17:40:00,
2013-04-16 10:50:00,77.8,37.0,29.83,East,90,8.6,10.6,22,0.00,,,0.00,tws,2013-04-16 17:50:00,
2013-04-16 11:00:00,78.1,36.9,29.83,North,360,7.7,10.0,22,0.00,,,0.00,tws,2013-04-16 18:00:00,
2013-04-16 11:10:00,78.7,36.4,29.83,SSE,157,9.1,12.3,21,0.00,,,0.00,tws,2013-04-16 18:10:00,
2013-04-16 11:20:00,79.1,35.2,29.83,East,90,10.4,13.1,20,0.00,,,0.00,tws,2013-04-16 18:20:00,
2013-04-16 11:30:00,79.1,35.4,29.83,ESE,112,8.8,12.4,20,0.00,,,0.00,tws,2013-04-16 18:30:00,
2013-04-16 11:40:00,79.2,35.2,29.82,South,180,9.2,11.5,20,0.00,,,0.00,tws,2013-04-16 18:40:00,
2013-04-16 11:50:00,79.3,35.3,29.81,East,90,10.2,12.0,20,0.00,,,0.00,tws,2013-04-16 18:50:00,
2013-04-16 12:00:00,79.2,34.3,29.82,SSE,157,10.7,14.3,19,0.00,,,0.00,tws,2013-04-16 19:00:00,
2013-04-16 12:10:00,79.1,34.6,29.81,ESE,112,8.3,10.3,19,0.00,,,0.00,tws,2013-04-16 19:10:00,
2013-04-16 12:20:00,79.2,35.4,29.81,North,360,8.7,12.4,20,0.00,,,0.00,tws,2013-04-16 19:20:00,
2013-04-16 12:30:00,79.5,35.9,29.80,SSE,157,7.5,10.3,20,0.00,,,0.00,tws,2013-04-16 19:30:00,
2013-04-16 12:40:00,79.8,36.2,29.79,ESE,112,7.9,10.4,20,0.00,,,0.00,tws,2013-04-16 19:40:00,
2013-04-16 12:50:00,80.2,35.1,29.79,SE,135,10.4,11.8,19,0.00,,,0.00,tws,2013-04-16 19:50:00,
2013-04-16 13:00:00,80.3,34.1,29.78,ESE,112,12.0,16.4,18,0.00,,,0.00,tws,2013-04-16 20:00:00,
2013-04-16 13:10:00,80.5,34.6,29.78,SE,135,11.3,15.5,18,0.00,,,0.00,tws,2013-04-16 20:10:00,
2013-04-16 13:20:00,80.7,34.6,29.78,SE,135,11.5,14.7,18,0.00,,,0.00,tws,2013-04-16 20:20:00,
2013-04-16 13:30:00,80.9,35.9,29.78,North,360,8.3,10.5,19,0.00,,,0.00,tws,2013-04-16 20:30:00,
2013-04-16 13:40:00,81.2,35.9,29.77,SE,135,9.5,12.3,19,0.00,,,0.00,tws,2013-04-16 20:40:00,
2013-04-16 13:50:00,81.4,37.3,29.77,ESE,112,8.3,10.8,20,0.00,,,0.00,tws,2013-04-16 20:50:00,
2013-04-16 14:00:00,81.8,37.3,29.76,East,90,9.7,14.9,19,0.00,,,0.00,tws,2013-04-16 21:00:00,
2013-04-16 14:10:00,81.9,36.7,29.75,East,90,8.3,9.9,19,0.00,,,0.00,tws,2013-04-16 21:10:00,
2013-04-16 14:20:00,82.3,36.6,29.75,SE,135,8.9,11.4,19,0.00,,,0.00,tws,2013-04-16 21:20:00,
2013-04-16 14:30:00,82.6,36.3,29.75,ENE,67,9.7,12.4,18,0.00,,,0.00,tws,2013-04-16 21:30:00,
2013-04-16 14:40:00,82.8,36.5,29.75,North,360,8.4,12.5,18,0.00,,,0.00,tws,2013-04-16 21:40:00,
2013-04-16 14:50:00,83.0,36.0,29.75,SE,135,9.4,13.9,18,0.00,,,0.00,tws,2013-04-16 21:50:00,
2013-04-16 15:00:00,83.1,36.4,29.75,SE,135,10.7,17.0,18,0.00,,,0.00,tws,2013-04-16 22:00:00,
2013-04-16 15:10:00,83.3,35.9,29.75,SE,135,9.9,12.3,18,0.00,,,0.00,tws,2013-04-16 22:10:00,
2013-04-16 15:20:00,83.2,35.8,29.75,ESE,112,10.4,13.9,17,0.00,,,0.00,tws,2013-04-16 22:20:00,
2013-04-16 15:30:00,83.5,36.0,29.75,SE,135,8.6,9.6,17,0.00,,,0.00,tws,2013-04-16 22:30:00,
2013-04-16 15:40:00,84.0,36.6,29.75,SE,135,8.6,12.0,18,0.00,,,0.00,tws,2013-04-16 22:40:00,
2013-04-16 15:50:00,84.3,36.3,29.74,ESE,112,9.4,12.3,17,0.00,,,0.00,tws,2013-04-16 22:50:00,
2013-04-16 16:00:00,84.3,35.9,29.72,ESE,112,9.7,14.1,17,0.00,,,0.00,tws,2013-04-16 23:00:00,
2013-04-16 16:10:00,84.0,36.1,29.73,East,90,7.7,9.7,17,0.00,,,0.00,tws,2013-04-16 23:10:00,
2013-04-16 16:20:00,84.0,36.1,29.73,North,360,8.8,12.8,17,0.00,,,0.00,tws,2013-04-16 23:20:00,
2013-04-16 16:30:00,83.5,35.6,29.73,East,90,9.5,11.5,17,0.00,,,0.00,tws,2013-04-16 23:30:00,
2013-04-16 16:40:00,82.8,34.7,29.73,East,90,9.8,14.1,17,0.00,,,0.00,tws,2013-04-16 23:40:00,
2013-04-16 16:50:00,82.1,35.0,29.72,East,90,9.4,13.0,18,0.00,,,0.00,tws,2013-04-16 23:50:00,
2013-04-16 17:00:00,81.3,35.3,29.72,East,90,10.0,12.9,18,0.00,,,0.00,tws,2013-04-17 00:00:00,
2013-04-16 17:10:00,80.6,35.2,29.73,East,90,10.5,12.8,19,0.00,,,0.00,tws,2013-04-17 00:10:00,
2013-04-16 17:20:00,79.9,34.9,29.72,East,90,9.0,11.8,19,0.00,,,0.00,tws,2013-04-17 00:20:00,
2013-04-16 17:30:00,79.4,35.3,29.73,SE,135,9.1,10.6,20,0.00,,,0.00,tws,2013-04-17 00:30:00,
2013-04-16 17:40:00,79.1,35.9,29.73,ESE,112,8.8,9.5,20,0.00,,,0.00,tws,2013-04-17 00:40:00,
2013-04-16 17:50:00,78.8,36.0,29.74,ENE,67,7.5,8.9,20,0.00,,,0.00,tws,2013-04-17 00:50:00,
2013-04-16 18:00:00,78.3,36.8,29.74,SE,135,8.0,9.2,22,0.00,,,0.00,tws,2013-04-17 01:00:00,
2013-04-16 18:10:00,77.8,37.2,29.74,South,180,6.7,8.5,22,0.00,,,0.00,tws,2013-04-17 01:10:00,
2013-04-16 18:20:00,77.4,37.0,29.72,East,90,6.7,8.1,22,0.00,,,0.00,tws,2013-04-17 01:20:00,
2013-04-16 18:30:00,77.0,36.9,29.73,North,360,7.4,9.3,23,0.00,,,0.00,tws,2013-04-17 01:30:00,
2013-04-16 18:40:00,76.5,37.4,29.74,SE,135,8.4,10.2,23,0.00,,,0.00,tws,2013-04-17 01:40:00,
2013-04-16 18:50:00,76.1,37.5,29.75,NE,45,6.2,7.7,24,0.00,,,0.00,tws,2013-04-17 01:50:00,
2013-04-16 19:00:00,75.4,38.1,29.75,South,180,6.8,8.8,25,0.00,,,0.00,tws,2013-04-17 02:00:00,
2013-04-16 19:10:00,74.8,38.4,29.74,South,180,8.2,10.4,26,0.00,,,0.00,tws,2013-04-17 02:10:00,
2013-04-16 19:20:00,74.0,39.0,29.76,South,180,9.0,11.9,27,0.00,,,0.00,tws,2013-04-17 02:20:00,
2013-04-16 19:30:00,73.1,36.8,29.75,South,180,9.2,12.3,26,0.00,,,0.00,tws,2013-04-17 02:30:00,
2013-04-16 19:40:00,71.7,34.3,29.74,North,360,9.9,11.9,24,0.00,,,0.00,tws,2013-04-17 02:40:00,
2013-04-16 19:50:00,70.5,33.5,29.76,North,360,8.7,10.8,25,0.00,,,0.00,tws,2013-04-17 02:50:00,
2013-04-16 20:00:00,69.6,32.5,29.75,SW,225,9.2,13.3,24,0.00,,,0.00,tws,2013-04-17 03:00:00,
2013-04-16 20:10:00,68.8,31.9,29.75,South,180,7.7,12.2,25,0.00,,,0.00,tws,2013-04-17 03:10:00,
2013-04-16 20:20:00,68.2,31.7,29.77,SE,135,7.1,8.4,25,0.00,,,0.00,tws,2013-04-17 03:20:00,
2013-04-16 20:30:00,67.6,31.4,29.78,South,180,6.8,8.4,25,0.00,,,0.00,tws,2013-04-17 03:30:00,
2013-04-16 20:40:00,67.0,31.6,29.79,South,180,4.9,7.1,26,0.00,,,0.00,tws,2013-04-17 03:40:00,
2013-04-16 20:50:00,66.5,31.7,29.79,South,180,5.4,8.0,26,0.00,,,0.00,tws,2013-04-17 03:50:00,
2013-04-16 21:00:00,66.0,31.8,29.80,SW,225,3.2,7.7,27,0.00,,,0.00,tws,2013-04-17 04:00:00,
2013-04-16 21:10:00,65.5,32.2,29.81,NE,45,1.3,3.7,28,0.00,,,0.00,tws,2013-04-17 04:10:00,
2013-04-16 21:20:00,65.0,33.1,29.81,SSW,202,0.0,0.0,30,0.00,,,0.00,tws,2013-04-17 04:20:00,
2013-04-16 21:30:00,64.6,32.9,29.82,South,180,0.6,2.2,30,0.00,,,0.00,tws,2013-04-17 04:30:00,
2013-04-16 21:40:00,64.2,32.9,29.82,South,180,0.1,0.7,30,0.00,,,0.00,tws,2013-04-17 04:40:00,
2013-04-16 21:50:00,63.7,33.1,29.83,East,90,0.8,4.4,31,0.00,,,0.00,tws,2013-04-17 04:50:00,
2013-04-16 22:00:00,63.4,32.8,29.83,SE,135,1.4,5.1,31,0.00,,,0.00,tws,2013-04-17 05:00:00,
2013-04-16 22:10:00,62.9,32.4,29.83,South,180,2.5,3.9,31,0.00,,,0.00,tws,2013-04-17 05:10:00,
2013-04-16 22:20:00,62.6,32.5,29.84,NE,45,0.8,3.7,31,0.00,,,0.00,tws,2013-04-17 05:20:00,
2013-04-16 22:30:00,62.3,32.9,29.84,NNW,337,0.0,0.0,32,0.00,,,0.00,tws,2013-04-17 05:30:00,
2013-04-16 22:40:00,61.9,33.4,29.84,NE,45,0.0,0.0,34,0.00,,,0.00,tws,2013-04-17 05:40:00,
2013-04-16 22:50:00,61.5,33.3,29.85,South,180,0.3,1.4,34,0.00,,,0.00,tws,2013-04-17 05:50:00,
2013-04-16 23:00:00,61.2,33.1,29.85,NE,45,0.3,1.5,34,0.00,,,0.00,tws,2013-04-17 06:00:00,
2013-04-16 23:10:00,61.0,33.4,29.85,NW,315,0.0,0.0,35,0.00,,,0.00,tws,2013-04-17 06:10:00,
2013-04-16 23:20:00,60.7,33.2,29.85,East,90,0.6,3.5,35,0.00,,,0.00,tws,2013-04-17 06:20:00,
2013-04-16 23:30:00,60.4,33.0,29.85,SSE,157,0.1,0.7,35,0.00,,,0.00,tws,2013-04-17 06:30:00,
2013-04-16 23:40:00,60.1,33.2,29.85,South,180,0.0,0.2,35,0.00,,,0.00,tws,2013-04-17 06:40:00,
2013-04-16 23:50:00,59.9,32.4,29.85,SSW,202,2.5,5.2,35,0.00,,,0.00,tws,2013-04-17 06:50:00,